createdAt,value
2022-12-12T00:00:46.410Z,0.55
2022-12-12T00:03:13.878Z,0.30
2022-12-12T00:05:41.816Z,0.24
2022-12-12T00:08:09.182Z,0.25
2022-12-12T00:10:36.554Z,0.21
2022-12-12T00:13:04.049Z,0.33
2022-12-12T00:15:31.363Z,0.69
2022-12-12T00:17:58.738Z,0.78
2022-12-12T00:20:25.924Z,1.03
2022-12-12T00:22:53.354Z,1.06
2022-12-12T00:25:20.743Z,0.62
2022-12-12T00:27:48.009Z,0.61
2022-12-12T00:30:15.453Z,0.62
2022-12-12T00:32:42.809Z,0.88
2022-12-12T00:35:10.563Z,0.94
2022-12-12T00:37:38.298Z,0.98
2022-12-12T00:40:06.460Z,0.95
2022-12-12T00:42:33.710Z,1.01
2022-12-12T00:45:00.959Z,0.99
2022-12-12T00:47:28.370Z,1.13
2022-12-12T00:49:55.593Z,1.33
2022-12-12T00:52:22.838Z,1.42
2022-12-12T00:54:50.076Z,1.41
2022-12-12T00:57:17.924Z,1.33
2022-12-12T00:59:45.271Z,0.87
2022-12-12T01:02:12.592Z,0.63
2022-12-12T01:04:39.950Z,0.83
2022-12-12T01:07:07.386Z,1.13
2022-12-12T01:09:34.915Z,1.03
2022-12-12T01:12:02.202Z,1.15
2022-12-12T01:14:29.434Z,1.03
2022-12-12T01:16:56.730Z,1.16
2022-12-12T01:19:23.972Z,1.28
2022-12-12T01:21:51.312Z,1.24
2022-12-12T01:24:18.582Z,1.20
2022-12-12T01:26:45.851Z,1.41
2022-12-12T01:29:13.138Z,1.47
2022-12-12T01:31:40.429Z,1.29
2022-12-12T01:34:08.143Z,0.96
2022-12-12T01:36:35.519Z,0.83
2022-12-12T01:39:03.444Z,0.93
2022-12-12T01:41:30.755Z,0.82
2022-12-12T01:44:01.922Z,0.94
2022-12-12T01:46:39.553Z,1.20
2022-12-12T01:49:15.940Z,1.29
2022-12-12T01:51:44.255Z,1.18
2022-12-12T01:54:16.025Z,1.10
2022-12-12T01:56:44.906Z,1.09
2022-12-12T01:59:15.449Z,1.10
2022-12-12T02:01:43.084Z,1.29
2022-12-12T02:04:11.174Z,1.31
2022-12-12T02:06:39.396Z,1.15
2022-12-12T02:09:10.300Z,1.09
2022-12-12T02:11:43.896Z,1.09
2022-12-12T02:14:11.988Z,0.85
2022-12-12T02:16:55.563Z,0.58
2022-12-12T02:19:54.497Z,0.80
2022-12-12T02:22:36.976Z,0.97
2022-12-12T02:25:13.344Z,0.60
2022-12-12T02:28:08.134Z,0.87
2022-12-12T02:30:45.720Z,1.28
2022-12-12T02:33:28.776Z,1.24
2022-12-12T02:36:13.579Z,1.11
2022-12-12T02:39:09.779Z,0.99
2022-12-12T02:41:56.541Z,0.52
2022-12-12T02:44:38.763Z,0.65
2022-12-12T02:47:19.314Z,0.96
2022-12-12T02:50:16.074Z,1.21
2022-12-12T02:52:44.001Z,1.05
2022-12-12T02:55:12.049Z,0.92
2022-12-12T02:57:41.804Z,1.08
2022-12-12T03:00:14.998Z,0.97
2022-12-12T03:03:14.648Z,1.07
2022-12-12T03:06:25.010Z,0.68
2022-12-12T03:09:14.195Z,1.01
2022-12-12T03:11:53.629Z,1.21
2022-12-12T03:14:20.777Z,1.18
2022-12-12T03:16:55.614Z,1.42
2022-12-12T03:19:27.296Z,1.65
2022-12-12T03:22:29.948Z,1.58
2022-12-12T03:25:12.531Z,1.65
2022-12-12T03:28:10.536Z,1.55
2022-12-12T03:30:41.596Z,1.50
2022-12-12T03:33:18.747Z,1.27
2022-12-12T03:35:59.875Z,1.47
2022-12-12T03:38:32.309Z,1.44
2022-12-12T03:41:03.221Z,1.44
2022-12-12T03:43:33.419Z,1.00
2022-12-12T03:46:06.527Z,0.78
2022-12-12T03:48:37.385Z,0.84
2022-12-12T03:51:08.629Z,1.13
2022-12-12T03:53:44.043Z,1.06
2022-12-12T03:56:24.033Z,1.08
2022-12-12T03:58:55.968Z,1.24
2022-12-12T04:01:26.800Z,1.29
2022-12-12T04:04:09.939Z,1.15
2022-12-12T04:06:49.246Z,1.30
2022-12-12T04:09:37.693Z,1.17
2022-12-12T04:12:25.542Z,1.01
2022-12-12T04:15:27.007Z,1.41
2022-12-12T04:18:16.793Z,1.34
2022-12-12T04:21:02.706Z,1.37
2022-12-12T04:23:47.770Z,1.15
2022-12-12T04:26:40.931Z,1.24
2022-12-12T04:29:26.897Z,1.15
2022-12-12T04:32:08.320Z,1.26
2022-12-12T04:34:49.498Z,1.31
2022-12-12T04:37:20.090Z,1.47
2022-12-12T04:39:49.841Z,1.38
2022-12-12T04:42:21.615Z,1.65
2022-12-12T04:44:52.321Z,1.48
2022-12-12T04:47:21.154Z,1.53
2022-12-12T04:49:50.026Z,1.34
2022-12-12T04:52:18.987Z,1.40
2022-12-12T04:54:55.854Z,1.62
2022-12-12T04:57:47.630Z,1.67
2022-12-12T05:00:15.395Z,1.64
2022-12-12T05:02:51.387Z,1.53
2022-12-12T05:05:25.631Z,1.55
2022-12-12T05:08:08.023Z,1.50
2022-12-12T05:10:42.697Z,1.56
2022-12-12T05:13:18.225Z,1.66
2022-12-12T05:15:46.965Z,1.49
2022-12-12T05:18:14.201Z,1.20
2022-12-12T05:20:41.593Z,1.33
2022-12-12T05:23:08.823Z,1.45
2022-12-12T05:25:36.534Z,1.43
2022-12-12T05:28:03.910Z,1.17
2022-12-12T05:30:36.085Z,1.23
2022-12-12T05:33:03.576Z,1.26
2022-12-12T05:35:30.873Z,1.28
2022-12-12T05:37:58.116Z,1.11
2022-12-12T05:40:25.510Z,0.91
2022-12-12T05:42:52.890Z,1.22
2022-12-12T05:45:20.274Z,1.09
2022-12-12T05:47:47.749Z,1.31
2022-12-12T05:50:15.035Z,1.33
2022-12-12T05:52:42.364Z,1.54
2022-12-12T05:55:10.101Z,1.40
2022-12-12T05:57:37.635Z,1.39
2022-12-12T06:00:05.717Z,1.24
2022-12-12T06:02:33.754Z,1.62
2022-12-12T06:05:01.355Z,1.58
2022-12-12T06:07:29.419Z,1.64
2022-12-12T06:09:56.822Z,1.50
2022-12-12T06:12:24.189Z,1.61
2022-12-12T06:14:51.532Z,1.60
2022-12-12T06:17:18.930Z,1.44
2022-12-12T06:19:46.187Z,1.53
2022-12-12T06:22:13.472Z,1.59
2022-12-12T06:24:41.281Z,1.24
2022-12-12T06:27:08.534Z,1.41
2022-12-12T06:29:36.130Z,1.42
2022-12-12T06:32:04.054Z,1.49
2022-12-12T06:34:31.411Z,1.71
2022-12-12T06:36:58.684Z,1.65
2022-12-12T06:39:25.923Z,1.70
2022-12-12T06:41:53.302Z,1.77
2022-12-12T06:44:20.633Z,1.71
2022-12-12T06:46:47.836Z,1.40
2022-12-12T06:49:15.181Z,1.47
2022-12-12T06:51:44.225Z,1.50
2022-12-12T06:54:17.365Z,1.32
2022-12-12T06:56:48.523Z,1.17
2022-12-12T06:59:16.642Z,1.25
2022-12-12T07:01:44.697Z,1.61
2022-12-12T07:04:12.890Z,1.63
2022-12-12T07:06:40.374Z,1.43
2022-12-12T07:09:08.287Z,1.15
2022-12-12T07:11:35.575Z,1.14
2022-12-12T07:14:05.560Z,1.22
2022-12-12T07:16:32.964Z,0.93
2022-12-12T07:19:00.279Z,0.93
2022-12-12T07:21:27.468Z,1.09
2022-12-12T07:23:56.930Z,1.00
2022-12-12T07:26:24.722Z,0.86
2022-12-12T07:28:52.207Z,0.82
2022-12-12T07:31:22.536Z,0.95
2022-12-12T07:33:50.105Z,1.20
2022-12-12T07:36:17.677Z,1.31
2022-12-12T07:38:45.236Z,1.15
2022-12-12T07:41:15.912Z,1.34
2022-12-12T07:43:45.099Z,1.40
2022-12-12T07:46:16.808Z,1.44
2022-12-12T07:48:44.803Z,1.48
2022-12-12T07:51:12.614Z,1.44
2022-12-12T07:53:40.379Z,1.47
2022-12-12T07:56:09.681Z,1.01
2022-12-12T07:58:37.332Z,1.34
2022-12-12T08:01:14.363Z,1.20
2022-12-12T08:03:43.862Z,1.03
2022-12-12T08:06:11.875Z,1.03
2022-12-12T08:08:39.446Z,1.19
2022-12-12T08:11:08.519Z,0.84
2022-12-12T08:13:36.717Z,1.11
2022-12-12T08:16:05.498Z,1.14
2022-12-12T08:18:33.377Z,1.04
2022-12-12T08:21:00.756Z,1.05
2022-12-12T08:23:28.051Z,1.17
2022-12-12T08:25:55.338Z,1.35
2022-12-12T08:28:22.680Z,1.18
2022-12-12T08:30:50.858Z,1.04
2022-12-12T08:33:18.762Z,1.17
2022-12-12T08:35:46.058Z,1.03
2022-12-12T08:38:13.776Z,1.28
2022-12-12T08:40:41.808Z,1.05
2022-12-12T08:43:10.089Z,1.09
2022-12-12T08:45:38.381Z,1.21
2022-12-12T08:48:07.228Z,1.31
2022-12-12T08:50:34.694Z,1.34
2022-12-12T08:53:02.079Z,1.35
2022-12-12T08:55:30.458Z,1.45
2022-12-12T08:57:57.702Z,1.19
2022-12-12T09:00:25.085Z,1.13
2022-12-12T09:02:52.525Z,0.78
2022-12-12T09:05:19.896Z,1.23
2022-12-12T09:07:47.354Z,1.26
2022-12-12T09:10:14.678Z,1.21
2022-12-12T09:12:42.333Z,1.21
2022-12-12T09:15:10.169Z,1.22
2022-12-12T09:17:37.928Z,1.02
2022-12-12T09:20:06.103Z,1.28
2022-12-12T09:22:33.392Z,1.27
2022-12-12T09:25:00.689Z,1.33
2022-12-12T09:27:27.927Z,1.51
2022-12-12T09:29:55.170Z,1.70
2022-12-12T09:32:24.720Z,1.65
2022-12-12T09:34:52.385Z,1.36
2022-12-12T09:37:19.780Z,0.99
2022-12-12T09:39:47.212Z,1.03
2022-12-12T09:42:26.729Z,1.07
2022-12-12T09:44:56.517Z,1.26
2022-12-12T09:47:29.890Z,0.98
2022-12-12T09:50:02.493Z,1.14
2022-12-12T09:52:36.885Z,1.17
2022-12-12T09:55:20.325Z,0.79
2022-12-12T09:57:57.107Z,1.16
2022-12-12T10:00:24.539Z,1.29
2022-12-12T10:02:57.841Z,1.22
2022-12-12T10:05:34.107Z,1.44
2022-12-12T10:08:22.928Z,1.54
2022-12-12T10:10:56.523Z,1.12
2022-12-12T10:13:26.073Z,1.35
2022-12-12T10:16:00.030Z,1.51
2022-12-12T10:18:43.737Z,1.57
2022-12-12T10:21:27.162Z,1.49
2022-12-12T10:24:18.913Z,1.33
2022-12-12T10:26:46.215Z,1.31
2022-12-12T10:29:18.215Z,1.22
2022-12-12T10:32:09.837Z,1.22
2022-12-12T10:34:59.387Z,1.20
2022-12-12T10:37:52.003Z,1.43
2022-12-12T10:40:34.695Z,1.46
2022-12-12T10:43:14.040Z,1.74
2022-12-12T10:45:47.027Z,1.40
2022-12-12T10:48:14.497Z,1.52
2022-12-12T10:50:48.949Z,1.52
2022-12-12T10:53:16.440Z,1.53
2022-12-12T10:55:53.557Z,1.50
2022-12-12T10:58:28.729Z,1.55
2022-12-12T11:01:04.709Z,1.58
2022-12-12T11:03:37.571Z,0.95
2022-12-12T11:06:08.250Z,1.12
2022-12-12T11:08:36.791Z,0.97
2022-12-12T11:11:06.831Z,0.81
2022-12-12T11:13:45.538Z,0.93
2022-12-12T11:16:19.283Z,0.57
2022-12-12T11:19:00.612Z,0.68
2022-12-12T11:21:29.092Z,0.69
2022-12-12T11:23:57.656Z,0.99
2022-12-12T11:26:27.116Z,1.08
2022-12-12T11:29:10.085Z,1.11
2022-12-12T11:31:37.579Z,0.75
2022-12-12T11:34:06.305Z,0.63
2022-12-12T11:36:41.292Z,0.65
2022-12-12T11:39:37.827Z,0.40
2022-12-12T11:42:06.362Z,0.36
2022-12-12T11:44:38.443Z,0.63
2022-12-12T11:47:18.115Z,0.61
2022-12-12T11:49:54.470Z,0.69
2022-12-12T11:52:28.794Z,0.70
2022-12-12T11:54:56.761Z,0.72
2022-12-12T11:57:23.931Z,0.84
2022-12-12T12:00:03.479Z,1.04
2022-12-12T12:02:56.630Z,0.76
2022-12-12T12:06:10.557Z,1.04
2022-12-12T12:09:00.046Z,1.07
2022-12-12T12:11:35.578Z,1.13
2022-12-12T12:14:21.790Z,1.39
2022-12-12T12:16:56.027Z,1.21
2022-12-12T12:19:52.095Z,1.38
2022-12-12T12:22:24.802Z,1.39
2022-12-12T12:25:14.206Z,1.59
2022-12-12T12:28:07.296Z,1.80
2022-12-12T12:30:54.730Z,1.89
2022-12-12T12:33:37.216Z,1.91
2022-12-12T12:36:24.192Z,1.78
2022-12-12T12:39:03.605Z,1.72
2022-12-12T12:41:37.976Z,1.82
2022-12-12T12:44:26.815Z,1.79
2022-12-12T12:47:12.645Z,1.75
2022-12-12T12:49:50.462Z,1.78
2022-12-12T12:52:34.968Z,2.04
2022-12-12T12:55:02.696Z,1.83
2022-12-12T12:57:44.920Z,1.49
2022-12-12T13:00:18.179Z,1.65
2022-12-12T13:03:01.276Z,1.88
2022-12-12T13:05:33.647Z,1.81
2022-12-12T13:08:25.749Z,1.83
2022-12-12T13:11:08.966Z,1.72
2022-12-12T13:13:39.858Z,1.55
2022-12-12T13:16:16.205Z,1.87
2022-12-12T13:18:46.254Z,1.55
2022-12-12T13:21:35.026Z,1.49
2022-12-12T13:24:15.097Z,1.50
2022-12-12T13:27:21.001Z,1.46
2022-12-12T13:29:48.431Z,1.76
2022-12-12T13:32:45.136Z,1.92
2022-12-12T13:35:18.691Z,2.03
2022-12-12T13:37:52.053Z,2.01
2022-12-12T13:40:42.598Z,2.09
2022-12-12T13:43:38.679Z,2.28
2022-12-12T13:46:35.238Z,2.08
2022-12-12T13:49:12.458Z,2.00
2022-12-12T13:52:00.565Z,1.84
2022-12-12T13:54:27.937Z,1.78
2022-12-12T13:56:57.973Z,1.63
2022-12-12T13:59:25.485Z,1.66
2022-12-12T14:02:03.330Z,1.91
2022-12-12T14:04:32.727Z,2.19
2022-12-12T14:07:18.905Z,2.17
2022-12-12T14:09:49.795Z,1.92
2022-12-12T14:12:24.845Z,2.04
2022-12-12T14:15:03.829Z,2.08
2022-12-12T14:17:40.115Z,2.15
2022-12-12T14:20:39.577Z,2.32
2022-12-12T14:23:23.701Z,2.00
2022-12-12T14:25:51.490Z,1.90
2022-12-12T14:28:36.915Z,1.69
2022-12-12T14:31:24.486Z,1.75
2022-12-12T14:33:58.305Z,1.89
2022-12-12T14:36:49.800Z,1.58
2022-12-12T14:39:31.413Z,1.39
2022-12-12T14:41:59.030Z,1.41
2022-12-12T14:44:36.469Z,1.53
2022-12-12T14:47:09.717Z,1.37
2022-12-12T14:49:36.970Z,1.31
2022-12-12T14:52:04.372Z,1.41
2022-12-12T14:54:31.791Z,1.54
2022-12-12T14:56:59.678Z,1.51
2022-12-12T14:59:37.184Z,1.73
2022-12-12T15:02:25.796Z,1.87
2022-12-12T15:05:04.157Z,1.86
2022-12-12T15:07:34.756Z,1.70
2022-12-12T15:10:02.071Z,1.66
2022-12-12T15:12:34.780Z,1.35
2022-12-12T15:15:02.336Z,1.44
2022-12-12T15:17:46.136Z,1.19
2022-12-12T15:20:25.044Z,1.20
2022-12-12T15:23:00.993Z,1.12
2022-12-12T15:25:30.733Z,1.29
2022-12-12T15:27:58.504Z,1.10
2022-12-12T15:30:36.429Z,1.13
2022-12-12T15:33:05.895Z,0.94
2022-12-12T15:35:33.500Z,0.95
2022-12-12T15:38:02.724Z,1.18
2022-12-12T15:40:31.935Z,1.16
2022-12-12T15:43:01.754Z,1.30
2022-12-12T15:45:30.680Z,1.25
2022-12-12T15:47:58.508Z,1.08
2022-12-12T15:50:29.471Z,1.00
2022-12-12T15:53:02.836Z,0.91
2022-12-12T15:55:30.376Z,1.08
2022-12-12T15:57:57.905Z,1.23
2022-12-12T16:00:30.319Z,1.13
2022-12-12T16:03:24.195Z,1.01
2022-12-12T16:06:13.893Z,0.91
2022-12-12T16:08:44.499Z,0.89
2022-12-12T16:11:31.910Z,0.73
2022-12-12T16:13:59.911Z,0.63
2022-12-12T16:16:40.946Z,0.73
2022-12-12T16:19:33.565Z,0.78
2022-12-12T16:22:16.218Z,0.65
2022-12-12T16:24:52.434Z,0.81
2022-12-12T16:27:20.495Z,0.57
2022-12-12T16:29:47.834Z,0.71
2022-12-12T16:32:17.728Z,0.65
2022-12-12T16:34:48.080Z,0.63
2022-12-12T16:37:17.868Z,0.61
2022-12-12T16:39:45.371Z,0.57
2022-12-12T16:42:17.124Z,0.84
2022-12-12T16:44:45.975Z,0.73
2022-12-12T16:47:18.967Z,0.48
2022-12-12T16:49:46.582Z,0.48
2022-12-12T16:52:19.001Z,0.58
2022-12-12T16:54:53.136Z,0.50
2022-12-12T16:57:22.013Z,0.36
2022-12-12T16:59:49.328Z,0.40
2022-12-12T17:02:20.753Z,0.38
2022-12-12T17:04:49.286Z,0.55
2022-12-12T17:07:16.772Z,0.34
2022-12-12T17:09:44.191Z,0.61
2022-12-12T17:12:13.051Z,0.59
2022-12-12T17:14:40.423Z,0.29
2022-12-12T17:17:07.854Z,0.22
2022-12-12T17:19:35.087Z,0.26
2022-12-12T17:22:02.626Z,0.24
2022-12-12T17:24:29.992Z,0.20
2022-12-12T17:26:58.527Z,0.26
2022-12-12T17:29:26.015Z,0.51
2022-12-12T17:31:53.391Z,0.36
2022-12-12T17:34:20.815Z,0.18
2022-12-12T17:36:48.654Z,0.00
2022-12-12T17:39:16.018Z,0.06
2022-12-12T17:41:43.287Z,-0.07
2022-12-12T17:44:10.578Z,0.07
2022-12-12T17:46:38.111Z,-0.15
2022-12-12T17:49:05.312Z,0.02
2022-12-12T17:51:32.799Z,0.07
2022-12-12T17:54:00.621Z,-0.17
2022-12-12T17:56:27.913Z,-0.17
2022-12-12T17:58:55.348Z,-0.02
2022-12-12T18:01:25.866Z,-0.16
2022-12-12T18:03:53.787Z,0.04
2022-12-12T18:06:22.252Z,0.10
2022-12-12T18:08:50.119Z,0.15
2022-12-12T18:11:19.927Z,0.28
2022-12-12T18:13:48.653Z,-0.04
2022-12-12T18:16:16.635Z,-0.14
2022-12-12T18:18:44.694Z,-0.23
2022-12-12T18:21:23.616Z,-0.05
2022-12-12T18:24:02.938Z,0.05
2022-12-12T18:26:30.360Z,-0.02
2022-12-12T18:29:03.244Z,0.07
2022-12-12T18:31:30.685Z,0.24
2022-12-12T18:33:58.144Z,0.04
2022-12-12T18:36:27.868Z,-0.05
2022-12-12T18:38:55.516Z,-0.10
2022-12-12T18:41:23.195Z,-0.02
2022-12-12T18:43:50.556Z,-0.06
2022-12-12T18:46:21.224Z,0.09
2022-12-12T18:48:48.736Z,0.11
2022-12-12T18:51:34.015Z,0.19
2022-12-12T18:54:03.189Z,0.38
2022-12-12T18:56:31.382Z,0.09
2022-12-12T18:59:00.972Z,0.09
2022-12-12T19:01:31.762Z,0.18
2022-12-12T19:04:05.811Z,0.13
2022-12-12T19:06:37.417Z,0.27
2022-12-12T19:09:08.340Z,0.33
2022-12-12T19:11:43.270Z,0.32
2022-12-12T19:14:14.318Z,0.18
2022-12-12T19:16:45.703Z,0.35
2022-12-12T19:19:13.942Z,0.27
2022-12-12T19:21:42.864Z,0.13
2022-12-12T19:24:12.425Z,0.16
2022-12-12T19:26:40.908Z,0.19
2022-12-12T19:29:16.350Z,0.29
2022-12-12T19:31:44.875Z,0.08
2022-12-12T19:34:13.691Z,0.08
2022-12-12T19:36:41.227Z,-0.03
2022-12-12T19:39:09.063Z,0.17
2022-12-12T19:41:36.438Z,0.28
2022-12-12T19:44:05.759Z,-0.01
2022-12-12T19:46:33.213Z,-0.04
2022-12-12T19:49:03.098Z,0.03
2022-12-12T19:51:32.652Z,0.05
2022-12-12T19:54:00.650Z,0.15
2022-12-12T19:56:33.829Z,0.24
2022-12-12T19:59:01.820Z,0.22
2022-12-12T20:01:34.549Z,0.26
2022-12-12T20:04:07.884Z,0.20
2022-12-12T20:06:41.397Z,0.25
2022-12-12T20:09:09.670Z,0.32
2022-12-12T20:11:37.956Z,0.20
2022-12-12T20:14:11.275Z,0.41
2022-12-12T20:16:39.033Z,0.48
2022-12-12T20:19:06.473Z,0.54
2022-12-12T20:24:26.121Z,0.29
2022-12-12T20:26:55.240Z,0.17
2022-12-12T20:29:23.631Z,0.38
2022-12-12T20:31:51.442Z,0.29
2022-12-12T20:34:21.973Z,0.16
2022-12-12T20:36:55.075Z,0.20
2022-12-12T20:39:32.013Z,0.22
2022-12-12T20:42:02.548Z,0.45
2022-12-12T20:44:30.207Z,0.51
2022-12-12T20:47:02.311Z,0.31
2022-12-12T20:49:30.283Z,0.12
2022-12-12T20:51:58.796Z,0.07
2022-12-12T20:54:30.504Z,0.15
2022-12-12T20:56:58.775Z,-0.17
2022-12-12T20:59:30.133Z,-0.07
2022-12-12T21:01:57.856Z,0.06
2022-12-12T21:04:32.278Z,0.09
2022-12-12T21:07:09.486Z,0.13
2022-12-12T21:09:36.955Z,0.15
2022-12-12T21:12:04.694Z,0.28
2022-12-12T21:14:35.047Z,0.22
2022-12-12T21:17:02.906Z,0.26
2022-12-12T21:19:30.122Z,0.18
2022-12-12T21:21:57.484Z,0.15
2022-12-12T21:24:24.805Z,0.21
2022-12-12T21:26:52.488Z,0.09
2022-12-12T21:29:20.091Z,0.14
2022-12-12T21:31:51.722Z,0.14
2022-12-12T21:34:22.294Z,0.26
2022-12-12T21:36:50.488Z,0.09
2022-12-12T21:39:17.859Z,0.27
2022-12-12T21:41:45.381Z,0.23
2022-12-12T21:44:13.166Z,0.26
2022-12-12T21:46:43.221Z,0.33
2022-12-12T21:49:26.547Z,0.19
2022-12-12T21:52:00.558Z,0.34
2022-12-12T21:54:31.468Z,0.43
2022-12-12T21:56:59.905Z,0.19
2022-12-12T21:59:27.646Z,0.19
2022-12-12T22:01:56.674Z,0.34
2022-12-12T22:04:24.536Z,0.39
2022-12-12T22:06:52.036Z,0.38
2022-12-12T22:09:19.378Z,0.40
2022-12-12T22:11:51.576Z,0.48
2022-12-12T22:14:21.130Z,0.50
2022-12-12T22:16:48.948Z,0.42
2022-12-12T22:19:17.193Z,0.45
2022-12-12T22:21:51.546Z,0.20
2022-12-12T22:24:19.294Z,0.23
2022-12-12T22:26:49.293Z,0.32
2022-12-12T22:29:19.236Z,0.43
2022-12-12T22:31:49.974Z,0.60
2022-12-12T22:34:23.541Z,0.37
2022-12-12T22:36:52.361Z,0.28
2022-12-12T22:39:23.562Z,0.11
2022-12-12T22:41:51.312Z,0.37
2022-12-12T22:44:20.688Z,0.43
2022-12-12T22:46:49.651Z,0.54
2022-12-12T22:49:20.185Z,0.30
2022-12-12T22:51:48.457Z,0.17
2022-12-12T22:54:18.862Z,0.26
2022-12-12T22:56:46.438Z,0.03
2022-12-12T22:59:14.269Z,0.14
2022-12-12T23:01:42.055Z,0.06
2022-12-12T23:04:12.884Z,-0.08
2022-12-12T23:06:40.185Z,-0.01
2022-12-12T23:09:14.433Z,0.09
2022-12-12T23:11:42.642Z,0.19
2022-12-12T23:14:15.128Z,0.13
2022-12-12T23:16:43.542Z,0.21
2022-12-12T23:19:13.347Z,0.14
2022-12-12T23:21:40.805Z,0.13
2022-12-12T23:24:08.243Z,0.14
2022-12-12T23:26:36.703Z,0.19
2022-12-12T23:29:05.377Z,0.36
2022-12-12T23:31:34.374Z,0.44
2022-12-12T23:34:04.531Z,0.39
2022-12-12T23:36:32.374Z,0.23
2022-12-12T23:39:06.241Z,0.13
2022-12-12T23:41:35.053Z,0.28
2022-12-12T23:44:03.001Z,0.13
2022-12-12T23:46:33.253Z,0.18
2022-12-12T23:49:01.724Z,0.09
2022-12-12T23:51:30.964Z,0.17
2022-12-12T23:54:00.053Z,0.13
2022-12-12T23:56:28.178Z,0.22
2022-12-12T23:58:56.918Z,0.14
